Nearby METAR Reports

 

KUCP - New Castle Muni, Pennsylvania, USA
Distance from station: ENE 8mi, 13km
Updated: Sun, 28-Nov-2021 10:22pm EST
Light snow, Mist, Overcast
Light snow, Mist, Overcast
 Wind from WSW
Wind: WSW 10 mph , 17 km/h
Temperature: 30°F , -1°C
Wind Chill: 21°F , -6°C
Dew Point: 27°F , -3°C
Humidity: 86%
Barometer: 29.90 inHg , 1012.5 hPa
Summary: Light snow, Mist
Clouds: Overcast
Visibility: 2 miles , 3 km
Cloud details: Partly cloudy 900 ft
Mostly cloudy 1800 ft
Overcast 4200 ft
2021/11/29 03:22 KUCP 290322Z AUTO 25009KT 2SM -SN BR SCT009 BKN018 OVC042 M01/M03 A2990 RMK AO2 VIS 1 1/4V5 P0000
KBVI - Beaver Falls Arp, Pennsylvania, USA
Distance from station: SSE 16mi, 26km
Updated: Sun, 28-Nov-2021 10:15pm EST
Partly cloudy
Partly cloudy
 Wind from WSW
Wind: WSW 10 mph , 17 km/h
Temperature: 32°F , 0°C
Wind Chill: 24°F , -4°C
Dew Point: 27°F , -3°C
Humidity: 80%
Barometer: 29.90 inHg , 1012.5 hPa
Clouds: Partly cloudy
Visibility: 10 miles , 16 km
Cloud details: Partly cloudy 3100 ft
Partly cloudy 4800 ft
Partly cloudy 6000 ft
2021/11/29 03:15 KBVI 290315Z AUTO 25009KT 10SM SCT031 SCT048 SCT060 00/M03 A2990 RMK AO2 T00001035
 
KYNG - Youngstown, Ohio, USA
Distance from station: NNW 20mi, 33km
Updated: Sun, 28-Nov-2021 10:20pm EST
Snow, Freezing, Fog, Overcast
Snow, Freezing, Fog, Overcast
 Wind from WSW
Wind: WSW 10 mph , 17 km/h
Temperature: 30°F , -1°C
Wind Chill: 21°F , -6°C
Dew Point: 28°F , -2°C
Humidity: 93%
Barometer: 29.88 inHg , 1011.9 hPa
Summary: Snow, Freezing, Fog
Clouds: Overcast
Visibility: 1/2 mile , 0.8 km
Cloud details: Overcast 700 ft
2021/11/29 03:20 KYNG 290320Z 24009KT 1/2SM SN FZFG OVC007 M01/M02 A2988 RMK AO2 P0001 T10111022 RVRNO $
KBTP - Butler Co., Pennsylvania, USA
Distance from station: ESE 34mi, 55km
Updated: Sun, 28-Nov-2021 10:28pm EST
Light snow, Mist, Overcast
Light snow, Mist, Overcast
 Wind from WSW
Wind: WSW 9 mph , 15 km/h
Temperature: 30°F , -1°C
Wind Chill: 22°F , -6°C
Dew Point: 27°F , -3°C
Humidity: 86%
Barometer: 29.90 inHg , 1012.5 hPa
Summary: Light snow, Mist
Clouds: Overcast
Visibility: 5 miles , 8 km
Cloud details: Partly cloudy 2300 ft
Mostly cloudy 2800 ft
Overcast 7000 ft
2021/11/29 03:28 KBTP 290328Z AUTO 25008KT 5SM -SN BR SCT023 BKN028 OVC070 M01/M03 A2990 RMK AO2 P0000 FZRANO
 
KPIT - Pittsburgh, Pennsylvania, USA
Distance from station: SSE 36mi, 57km
Updated: Sun, 28-Nov-2021 9:51pm EST
Few Clouds
Few Clouds
 Wind from W
Wind: W 9 mph , 15 km/h
Temperature: 30°F , -1°C
Wind Chill: 22°F , -6°C
Dew Point: 25°F , -4°C
Humidity: 80%
Barometer: 29.91 inHg , 1012.9 hPa
Clouds: Few Clouds
Visibility: 10 miles , 16 km
Cloud details: Few Clouds 5500 ft
Few Clouds 8500 ft
2021/11/29 02:51 KPIT 290251Z 26008KT 10SM FEW055 FEW085 M01/M04 A2991 RMK AO2 SLP148 60000 T10111044 51010
KPOV - Ravena/Portage, Ohio, USA
Distance from station: WNW 40mi, 65km
Updated: Sun, 28-Nov-2021 10:15pm EST
Overcast
Overcast
 Wind from W
Wind: W 12 mph , 19 km/h, Gust: 16 mph , 26 km/h
Temperature: 30°F , -1°C
Wind Chill: 20°F , -7°C
Dew Point: 27°F , -3°C
Humidity: 86%
Barometer: 29.89 inHg , 1012.2 hPa
Clouds: Overcast
Visibility: 10 miles , 16 km
Cloud details: Partly cloudy 900 ft
Overcast 1500 ft
2021/11/29 03:15 KPOV 290315Z AUTO 27010G14KT 10SM SCT009 OVC015 M01/M03 A2989 RMK AO2 T10101029 PWINO
 
KFKL - Franklin, Pennsylvania, USA
Distance from station: NE 45mi, 72km
Updated: Sun, 28-Nov-2021 10:11pm EST
Light snow, Mist, Overcast
Light snow, Mist, Overcast
 Wind from WSW
Wind: WSW 9 mph , 15 km/h
Temperature: 28°F , -2°C
Wind Chill: 19°F , -7°C
Dew Point: 28°F , -2°C
Humidity: 100%
Barometer: 29.84 inHg , 1010.5 hPa
Summary: Light snow, Mist
Clouds: Overcast
Visibility: 3 miles , 5 km
Cloud details: Overcast 500 ft
2021/11/29 03:11 KFKL 290311Z AUTO 25008KT 3SM -SN BR OVC005 M02/M02 A2984 RMK AO2 CIG 003V010 P0000 FZRANO
KCAK - Akron, Ohio, USA
Distance from station: W 47mi, 76km
Updated: Sun, 28-Nov-2021 10:25pm EST
Light snow, Overcast
Light snow, Overcast
 Wind from W
Wind: W 12 mph , 19 km/h
Temperature: 34°F , 1°C
Wind Chill: 25°F , -4°C
Dew Point: 27°F , -3°C
Humidity: 75%
Barometer: 29.93 inHg , 1013.5 hPa
Summary: Light Snow
Clouds: Overcast
Visibility: 10 miles , 16 km
Cloud details: Overcast 1800 ft
2021/11/29 03:25 KCAK 290325Z 27010KT 10SM -SN OVC018 01/M03 A2993 RMK AO2 SNB24 P0000 T00061033 $
 
KAKR - Akron (fulton), Ohio, USA
Distance from station: W 48mi, 77km
Updated: Sun, 28-Nov-2021 9:54pm EST
Overcast
Overcast
 Wind from W
Wind: W 14 mph , 22 km/h
Temperature: 34°F , 1°C
Wind Chill: 25°F , -4°C
Dew Point: 27°F , -3°C
Humidity: 75%
Barometer: 29.92 inHg , 1013.2 hPa
Clouds: Overcast
Visibility: 10 miles , 16 km
Cloud details: Mostly cloudy 1900 ft
Overcast 2700 ft
2021/11/29 02:54 KAKR 290254Z AUTO 27012KT 10SM BKN019 OVC027 01/M03 A2992 RMK AO2 SNE11 SLP140 P0000 60000 T00111033 51011
KGKJ - Meadville, Pennsylvania, USA
Distance from station: NNE 49mi, 79km
Updated: Sun, 28-Nov-2021 10:25pm EST
Light snow, Mist, Overcast
Light snow, Mist, Overcast
 Wind from SW
Wind: SW 6 mph , 9 km/h
Temperature: 30°F , -1°C
Wind Chill: 24°F , -4°C
Dew Point: 28°F , -2°C
Humidity: 93%
Barometer: 29.83 inHg , 1010.2 hPa
Summary: Light snow, Mist
Clouds: Overcast
Visibility: 1 1/2 miles , 2.4 km
Cloud details: Overcast 300 ft
2021/11/29 03:25 KGKJ 290325Z AUTO 22005KT 1 1/2SM -SN BR OVC003 M01/M02 A2983 RMK AO2 P0001 T10111017